Time;durP1;ratioP1;P1;durP2;ratioP2;P2;SDS_P1;SDS_P2;PMS_P1;PMS_P2;Temp;Humidity;BMP_temperature;BMP_pressure;BME280_temperature;BME280_humidity;BME280_pressure;Samples;Min_cycle;Max_cycle;Signal;HPM_P1;HPM_P2
2021/11/18 00:01:03;;;;;;;10.15;5.20;;;;;;;;;;5022559;28;20025;-54
2021/11/18 00:03:29;;;;;;;12.95;5.43;;;;;;;;;;5022042;28;20112;-52
2021/11/18 00:05:55;;;;;;;10.35;5.93;;;;;;;;;;5019353;28;20029;-55
2021/11/18 00:08:21;;;;;;;14.18;7.32;;;;;;;;;;5015744;28;20029;-55
2021/11/18 00:10:53;;;;;;;13.40;7.45;;;;;;;;;;5015903;28;20511;-54
2021/11/18 00:13:22;;;;;;;15.27;6.97;;;;;;;;;;5016179;28;20033;-54
2021/11/18 00:15:47;;;;;;;13.77;6.65;;;;;;;;;;5020760;28;20033;-53
2021/11/18 00:18:17;;;;;;;13.05;6.38;;;;;;;;;;5023615;28;20084;-54
2021/11/18 00:20:47;;;;;;;14.63;7.10;;;;;;;;;;5023860;28;20036;-52
2021/11/18 00:23:12;;;;;;;16.15;7.68;;;;;;;;;;5024718;28;20040;-53
2021/11/18 00:25:38;;;;;;;15.40;6.93;;;;;;;;;;5025856;28;20025;-53
2021/11/18 00:28:04;;;;;;;17.20;8.55;;;;;;;;;;5020909;28;20037;-55
2021/11/18 00:30:29;;;;;;;15.63;7.75;;;;;;;;;;5023116;28;20109;-54
2021/11/18 00:32:56;;;;;;;16.15;7.72;;;;;;;;;;5022156;28;20030;-54
2021/11/18 00:35:25;;;;;;;14.02;6.70;;;;;;;;;;5023185;28;20025;-51
2021/11/18 00:37:50;;;;;;;16.25;8.15;;;;;;;;;;5025012;28;20029;-55
2021/11/18 00:40:20;;;;;;;20.42;9.25;;;;;;;;;;5021218;28;20034;-54
2021/11/18 00:42:46;;;;;;;19.15;8.93;;;;;;;;;;5027065;28;20120;-55
2021/11/18 00:45:13;;;;;;;24.02;8.98;;;;;;;;;;5026631;28;20144;-53
2021/11/18 00:47:39;;;;;;;19.27;7.68;;;;;;;;;;5024256;28;20025;-55
2021/11/18 00:50:06;;;;;;;17.95;9.15;;;;;;;;;;5025292;28;20156;-54
2021/11/18 00:52:32;;;;;;;16.83;8.20;;;;;;;;;;5020282;28;20026;-55
2021/11/18 00:54:57;;;;;;;15.43;8.02;;;;;;;;;;5021898;28;20034;-51
2021/11/18 00:57:24;;;;;;;14.20;7.63;;;;;;;;;;5024508;28;20026;-54
2021/11/18 00:59:50;;;;;;;17.98;8.20;;;;;;;;;;5024589;28;20929;-53
2021/11/18 01:02:16;;;;;;;17.35;7.75;;;;;;;;;;5027377;28;20030;-52
2021/11/18 01:04:43;;;;;;;16.45;7.80;;;;;;;;;;5025935;28;20150;-54
2021/11/18 01:07:09;;;;;;;13.35;7.30;;;;;;;;;;5024689;28;20140;-53
2021/11/18 01:09:35;;;;;;;13.32;6.53;;;;;;;;;;5016831;28;20104;-53
2021/11/18 01:12:00;;;;;;;13.35;6.32;;;;;;;;;;5026775;28;20067;-54
2021/11/18 01:14:26;;;;;;;18.42;6.85;;;;;;;;;;5021864;28;20033;-53
2021/11/18 01:16:52;;;;;;;14.45;6.35;;;;;;;;;;5027476;28;20035;-52
2021/11/18 01:19:18;;;;;;;12.65;7.28;;;;;;;;;;5022614;28;20034;-55
2021/11/18 01:21:46;;;;;;;15.13;7.72;;;;;;;;;;5025911;28;20163;-55
2021/11/18 01:24:12;;;;;;;16.90;8.27;;;;;;;;;;5019590;28;20062;-53
2021/11/18 01:26:37;;;;;;;16.85;7.93;;;;;;;;;;5024902;28;20060;-53
2021/11/18 01:29:04;;;;;;;17.00;8.23;;;;;;;;;;5020922;28;20028;-54
2021/11/18 01:31:30;;;;;;;15.75;7.72;;;;;;;;;;5021497;28;20036;-55
2021/11/18 01:33:56;;;;;;;19.05;8.95;;;;;;;;;;5019125;28;20080;-54
2021/11/18 01:36:21;;;;;;;20.83;9.02;;;;;;;;;;5020441;28;20057;-54
2021/11/18 01:38:47;;;;;;;15.82;8.57;;;;;;;;;;5024464;28;20056;-54
2021/11/18 01:41:19;;;;;;;16.58;8.85;;;;;;;;;;5023234;28;20029;-52
2021/11/18 01:43:53;;;;;;;15.90;8.07;;;;;;;;;;5020593;28;20049;-55
2021/11/18 01:46:22;;;;;;;15.50;7.53;;;;;;;;;;5021791;28;20022;-53
2021/11/18 01:48:49;;;;;;;18.13;7.30;;;;;;;;;;5019299;28;20133;-52
2021/11/18 01:51:16;;;;;;;16.30;8.18;;;;;;;;;;5024854;28;20041;-54
2021/11/18 01:53:44;;;;;;;17.20;7.22;;;;;;;;;;5023654;28;20148;-54
2021/11/18 01:56:17;;;;;;;19.02;8.60;;;;;;;;;;5018557;28;20499;-53
2021/11/18 01:58:46;;;;;;;19.25;8.13;;;;;;;;;;5017526;28;20037;-53
2021/11/18 02:01:12;;;;;;;25.93;9.83;;;;;;;;;;5016725;28;20515;-53
2021/11/18 02:03:38;;;;;;;19.02;8.38;;;;;;;;;;5021335;28;20034;-54
2021/11/18 02:06:32;;;;;;;19.55;9.48;;;;;;;;;;5019205;28;20047;-56
2021/11/18 02:08:57;;;;;;;20.67;9.13;;;;;;;;;;5021598;28;20387;-52
2021/11/18 02:11:39;;;;;;;21.90;9.80;;;;;;;;;;5026089;28;20021;-55
2021/11/18 02:14:09;;;;;;;22.20;9.18;;;;;;;;;;5023275;28;20033;-57
2021/11/18 02:16:35;;;;;;;19.75;9.00;;;;;;;;;;5025411;28;20123;-52
2021/11/18 02:19:01;;;;;;;19.95;9.30;;;;;;;;;;5025114;28;20041;-53
2021/11/18 02:21:26;;;;;;;22.48;10.68;;;;;;;;;;5021038;28;20101;-54
2021/11/18 02:23:59;;;;;;;24.23;10.60;;;;;;;;;;5023111;28;20083;-53
2021/11/18 02:26:27;;;;;;;23.88;9.95;;;;;;;;;;5024612;28;20492;-53
2021/11/18 02:28:56;;;;;;;23.80;10.85;;;;;;;;;;5023791;28;20048;-54
2021/11/18 02:31:32;;;;;;;23.17;10.50;;;;;;;;;;5019629;28;20300;-55
2021/11/18 02:33:58;;;;;;;23.63;10.30;;;;;;;;;;5021183;28;20275;-53
2021/11/18 02:36:24;;;;;;;21.42;10.32;;;;;;;;;;5021544;28;20551;-53
2021/11/18 02:38:50;;;;;;;18.38;9.30;;;;;;;;;;5017723;28;20037;-55
2021/11/18 02:41:17;;;;;;;20.60;9.13;;;;;;;;;;5017267;28;20113;-54
2021/11/18 02:43:43;;;;;;;21.17;9.98;;;;;;;;;;5023780;28;20029;-52
2021/11/18 02:46:09;;;;;;;22.88;9.82;;;;;;;;;;5018234;28;20555;-54
2021/11/18 02:48:35;;;;;;;18.67;9.18;;;;;;;;;;5022061;28;20535;-55
2021/11/18 02:51:04;;;;;;;19.08;8.80;;;;;;;;;;5022012;28;20029;-55
2021/11/18 02:53:32;;;;;;;17.75;8.98;;;;;;;;;;5017450;28;20189;-53
2021/11/18 02:55:58;;;;;;;17.45;8.77;;;;;;;;;;5018900;28;20033;-53
2021/11/18 02:58:23;;;;;;;20.33;9.25;;;;;;;;;;5023168;28;20025;-53
2021/11/18 03:00:52;;;;;;;18.92;9.13;;;;;;;;;;5017090;28;20405;-54
2021/11/18 03:03:17;;;;;;;18.35;7.90;;;;;;;;;;5016684;28;20583;-55
2021/11/18 03:05:44;;;;;;;15.05;6.47;;;;;;;;;;5025296;28;20109;-55
2021/11/18 03:08:10;;;;;;;16.10;8.43;;;;;;;;;;5021970;28;20070;-55
2021/11/18 03:10:36;;;;;;;15.95;8.20;;;;;;;;;;5019469;28;20051;-54
2021/11/18 03:13:03;;;;;;;19.85;9.07;;;;;;;;;;5020764;28;20021;-53
2021/11/18 03:15:30;;;;;;;18.35;9.05;;;;;;;;;;5023967;28;20037;-55
2021/11/18 03:17:56;;;;;;;18.90;8.73;;;;;;;;;;5024560;28;20133;-54
2021/11/18 03:20:24;;;;;;;15.88;8.38;;;;;;;;;;5025725;28;20021;-53
2021/11/18 03:22:49;;;;;;;18.98;8.45;;;;;;;;;;5023383;28;20060;-52
2021/11/18 03:25:18;;;;;;;18.17;8.52;;;;;;;;;;5025404;28;20057;-54
2021/11/18 03:27:44;;;;;;;18.67;8.63;;;;;;;;;;5024388;28;20411;-52
2021/11/18 03:30:13;;;;;;;20.42;8.93;;;;;;;;;;5020583;28;20025;-55
2021/11/18 03:32:38;;;;;;;19.40;8.20;;;;;;;;;;5020202;28;20163;-54
2021/11/18 03:35:05;;;;;;;15.20;8.13;;;;;;;;;;5014953;28;20060;-53
2021/11/18 03:37:31;;;;;;;17.38;7.97;;;;;;;;;;5021722;28;20095;-51
2021/11/18 03:39:56;;;;;;;17.00;8.13;;;;;;;;;;5021011;28;20491;-51
2021/11/18 03:42:21;;;;;;;18.90;9.18;;;;;;;;;;5017399;28;20057;-54
2021/11/18 03:44:47;;;;;;;17.30;8.38;;;;;;;;;;5019090;28;20510;-54
2021/11/18 03:47:14;;;;;;;17.88;9.88;;;;;;;;;;5017775;28;20033;-54
2021/11/18 03:49:40;;;;;;;20.75;10.38;;;;;;;;;;5014633;28;20079;-54
2021/11/18 03:52:09;;;;;;;20.33;9.93;;;;;;;;;;5020186;28;20514;-54
2021/11/18 03:54:37;;;;;;;18.40;9.13;;;;;;;;;;5019523;28;20101;-55
2021/11/18 03:57:04;;;;;;;20.23;9.27;;;;;;;;;;5020864;28;20943;-55
2021/11/18 03:59:33;;;;;;;19.85;9.88;;;;;;;;;;5023021;28;20036;-54
2021/11/18 04:01:59;;;;;;;22.60;10.52;;;;;;;;;;5018096;28;20029;-54
2021/11/18 04:04:33;;;;;;;20.83;10.25;;;;;;;;;;5025483;28;20037;-55
2021/11/18 04:06:58;;;;;;;21.98;9.73;;;;;;;;;;5019992;28;20471;-54
2021/11/18 04:09:24;;;;;;;20.40;9.68;;;;;;;;;;5019772;28;20120;-56
2021/11/18 04:11:53;;;;;;;20.20;9.45;;;;;;;;;;5018919;28;20420;-55
2021/11/18 04:14:19;;;;;;;21.50;10.18;;;;;;;;;;5022696;28;20030;-55
2021/11/18 04:16:45;;;;;;;21.58;10.73;;;;;;;;;;5015000;28;20034;-56
2021/11/18 04:19:11;;;;;;;23.10;10.98;;;;;;;;;;5024108;28;20349;-54
2021/11/18 04:21:38;;;;;;;20.88;10.05;;;;;;;;;;5018265;28;20030;-55
2021/11/18 04:24:08;;;;;;;25.92;11.25;;;;;;;;;;5016021;28;20068;-55
2021/11/18 04:26:34;;;;;;;27.15;11.95;;;;;;;;;;5020433;28;20026;-55
2021/11/18 04:29:00;;;;;;;25.10;11.00;;;;;;;;;;5023601;28;20330;-54
2021/11/18 04:31:29;;;;;;;24.25;10.82;;;;;;;;;;5017353;28;20095;-53
2021/11/18 04:33:55;;;;;;;19.50;10.03;;;;;;;;;;5019003;28;20139;-54
2021/11/18 04:36:22;;;;;;;23.70;10.43;;;;;;;;;;5017596;28;20355;-54
2021/11/18 04:38:48;;;;;;;23.42;10.43;;;;;;;;;;5025724;28;20503;-54
2021/11/18 04:41:15;;;;;;;22.13;10.70;;;;;;;;;;5018201;28;20021;-53
2021/11/18 04:43:41;;;;;;;22.73;10.25;;;;;;;;;;5019272;28;20025;-54
2021/11/18 04:46:09;;;;;;;21.00;10.27;;;;;;;;;;5014388;28;20452;-54
2021/11/18 04:48:36;;;;;;;20.98;9.65;;;;;;;;;;5020398;28;20028;-55
2021/11/18 04:51:03;;;;;;;22.77;10.07;;;;;;;;;;5017757;28;20036;-54
2021/11/18 04:53:29;;;;;;;17.42;8.82;;;;;;;;;;5014783;28;20049;-55
2021/11/18 04:55:56;;;;;;;16.77;8.13;;;;;;;;;;5021605;28;20514;-54
2021/11/18 04:58:22;;;;;;;20.10;9.48;;;;;;;;;;5016545;28;20030;-54
2021/11/18 05:00:50;;;;;;;20.42;9.70;;;;;;;;;;5019216;28;20112;-54
2021/11/18 05:03:16;;;;;;;16.58;8.00;;;;;;;;;;5024524;28;20499;-54
2021/11/18 05:05:42;;;;;;;21.27;10.02;;;;;;;;;;5018518;28;20381;-54
2021/11/18 05:08:08;;;;;;;25.20;11.43;;;;;;;;;;5023718;28;20037;-54
2021/11/18 05:10:35;;;;;;;27.90;11.27;;;;;;;;;;5022213;28;20121;-54
2021/11/18 05:13:01;;;;;;;21.48;10.45;;;;;;;;;;5027024;28;20026;-53
2021/11/18 05:15:32;;;;;;;20.17;9.95;;;;;;;;;;5024067;28;20498;-52
2021/11/18 05:17:58;;;;;;;24.83;11.02;;;;;;;;;;5025342;28;20129;-53
2021/11/18 05:20:26;;;;;;;19.83;9.55;;;;;;;;;;5024347;28;20543;-56
2021/11/18 05:22:52;;;;;;;20.63;10.02;;;;;;;;;;5018335;28;20156;-54
2021/11/18 05:25:21;;;;;;;18.25;9.00;;;;;;;;;;5024255;28;20033;-54
2021/11/18 05:27:46;;;;;;;21.50;10.40;;;;;;;;;;5022767;28;20099;-54
2021/11/18 05:30:13;;;;;;;19.80;9.93;;;;;;;;;;5019734;28;20017;-53
2021/11/18 05:32:39;;;;;;;20.25;9.50;;;;;;;;;;5020686;28;20148;-55
2021/11/18 05:35:05;;;;;;;20.17;10.38;;;;;;;;;;5019903;28;20507;-55
2021/11/18 05:37:31;;;;;;;20.48;9.85;;;;;;;;;;5023633;28;20025;-54
2021/11/18 05:39:56;;;;;;;22.25;9.55;;;;;;;;;;5028616;28;20509;-54
2021/11/18 05:42:22;;;;;;;17.52;9.20;;;;;;;;;;5022261;28;20025;-50
2021/11/18 05:44:48;;;;;;;18.58;9.00;;;;;;;;;;5026038;28;20033;-56
2021/11/18 05:47:14;;;;;;;18.67;9.40;;;;;;;;;;5026931;28;20526;-55
2021/11/18 05:49:40;;;;;;;20.45;10.13;;;;;;;;;;5022961;28;20033;-53
2021/11/18 05:52:05;;;;;;;16.20;9.68;;;;;;;;;;5021502;28;20051;-58
2021/11/18 05:54:31;;;;;;;20.13;9.73;;;;;;;;;;5025302;28;20106;-55
2021/11/18 05:56:56;;;;;;;19.20;9.82;;;;;;;;;;5024230;28;20107;-55
2021/11/18 05:59:22;;;;;;;23.15;11.48;;;;;;;;;;5024796;28;20029;-57
2021/11/18 06:01:47;;;;;;;25.70;11.88;;;;;;;;;;5028756;28;20032;-56
2021/11/18 06:04:13;;;;;;;23.05;10.48;;;;;;;;;;5020656;28;22327;-55
2021/11/18 06:06:39;;;;;;;17.40;8.57;;;;;;;;;;5024097;28;20029;-56
2021/11/18 06:09:05;;;;;;;21.10;10.05;;;;;;;;;;5018138;28;20018;-56
2021/11/18 06:11:33;;;;;;;19.75;9.32;;;;;;;;;;5021047;28;20033;-56
2021/11/18 06:13:59;;;;;;;12.98;6.05;;;;;;;;;;5018515;28;20534;-54
2021/11/18 06:16:26;;;;;;;12.90;7.35;;;;;;;;;;5020175;28;20041;-56
2021/11/18 06:18:54;;;;;;;15.30;7.57;;;;;;;;;;5025506;28;20092;-56
2021/11/18 06:21:21;;;;;;;15.35;8.40;;;;;;;;;;5023196;28;20033;-57
2021/11/18 06:23:47;;;;;;;17.08;8.55;;;;;;;;;;5019990;28;20029;-57
2021/11/18 06:26:14;;;;;;;14.48;8.27;;;;;;;;;;5020889;28;20369;-56
2021/11/18 06:28:41;;;;;;;14.65;8.27;;;;;;;;;;5018931;28;20024;-56
2021/11/18 06:31:09;;;;;;;13.57;8.13;;;;;;;;;;5016919;28;20128;-56
2021/11/18 06:33:35;;;;;;;14.75;9.15;;;;;;;;;;5018146;28;20025;-55
2021/11/18 06:36:01;;;;;;;19.77;11.15;;;;;;;;;;5024668;28;20032;-56
2021/11/18 06:38:27;;;;;;;20.35;11.18;;;;;;;;;;5020444;28;20478;-56
2021/11/18 06:40:53;;;;;;;18.80;10.18;;;;;;;;;;5024124;28;20120;-58
2021/11/18 06:43:19;;;;;;;13.88;8.00;;;;;;;;;;5019133;28;20037;-53
2021/11/18 06:45:46;;;;;;;15.55;8.18;;;;;;;;;;5017262;28;20056;-55
2021/11/18 06:48:18;;;;;;;15.48;7.80;;;;;;;;;;5018776;28;20088;-55
2021/11/18 06:50:45;;;;;;;12.60;7.00;;;;;;;;;;5019733;28;20024;-56
2021/11/18 06:53:11;;;;;;;14.07;7.07;;;;;;;;;;5019309;28;20090;-55
2021/11/18 06:55:37;;;;;;;11.68;6.63;;;;;;;;;;5023834;28;20117;-56
2021/11/18 06:58:04;;;;;;;13.65;7.18;;;;;;;;;;5023591;28;20098;-54
2021/11/18 07:00:30;;;;;;;12.70;7.53;;;;;;;;;;5023880;28;20025;-55
2021/11/18 07:02:55;;;;;;;13.52;7.13;;;;;;;;;;5021431;28;20083;-55
2021/11/18 07:05:21;;;;;;;14.63;6.68;;;;;;;;;;5016586;28;20417;-56
2021/11/18 07:07:47;;;;;;;13.88;7.22;;;;;;;;;;5024076;28;20519;-56
2021/11/18 07:10:14;;;;;;;11.57;6.80;;;;;;;;;;5014192;28;20026;-56
2021/11/18 07:12:39;;;;;;;10.23;5.93;;;;;;;;;;5016411;28;20028;-56
2021/11/18 07:15:07;;;;;;;11.00;6.72;;;;;;;;;;5022674;28;20372;-57
2021/11/18 07:17:33;;;;;;;13.27;7.95;;;;;;;;;;5018611;28;20029;-55
2021/11/18 07:19:59;;;;;;;13.98;7.57;;;;;;;;;;5021755;28;20041;-56
2021/11/18 07:22:27;;;;;;;11.27;6.60;;;;;;;;;;5022140;28;20032;-56
2021/11/18 07:24:55;;;;;;;11.18;6.60;;;;;;;;;;5016864;28;20459;-56
2021/11/18 07:27:20;;;;;;;13.60;7.07;;;;;;;;;;5024968;28;20033;-55
2021/11/18 07:29:45;;;;;;;13.88;7.53;;;;;;;;;;5023751;28;20118;-56
2021/11/18 07:32:11;;;;;;;16.17;7.65;;;;;;;;;;5016970;28;20136;-56
2021/11/18 07:34:36;;;;;;;18.88;9.18;;;;;;;;;;5021745;28;20017;-56
2021/11/18 07:37:02;;;;;;;25.48;11.45;;;;;;;;;;5017053;28;20030;-54
2021/11/18 07:39:27;;;;;;;18.58;9.60;;;;;;;;;;5014327;28;20038;-54
2021/11/18 07:41:54;;;;;;;16.23;8.48;;;;;;;;;;5024318;28;20396;-55
2021/11/18 07:44:20;;;;;;;16.15;8.55;;;;;;;;;;5018453;28;20072;-55
2021/11/18 07:46:47;;;;;;;15.63;8.48;;;;;;;;;;5016571;28;20030;-56
2021/11/18 07:49:13;;;;;;;15.05;7.70;;;;;;;;;;5020955;28;20054;-54
2021/11/18 07:51:39;;;;;;;15.32;8.27;;;;;;;;;;5021735;28;20037;-55
2021/11/18 07:54:07;;;;;;;16.35;8.45;;;;;;;;;;5019196;28;20049;-54
2021/11/18 07:56:33;;;;;;;25.27;12.00;;;;;;;;;;5019544;28;20017;-54
2021/11/18 07:58:59;;;;;;;18.73;9.80;;;;;;;;;;5016134;28;20030;-55
2021/11/18 08:01:25;;;;;;;16.35;8.48;;;;;;;;;;5018776;28;20112;-54
2021/11/18 08:03:50;;;;;;;19.60;9.50;;;;;;;;;;5019005;28;20080;-54
2021/11/18 08:06:22;;;;;;;15.63;8.65;;;;;;;;;;5022541;28;20030;-55
2021/11/18 08:08:50;;;;;;;19.77;9.27;;;;;;;;;;5017111;28;20438;-55
2021/11/18 08:11:27;;;;;;;18.48;9.52;;;;;;;;;;5025922;28;20091;-54
2021/11/18 08:13:53;;;;;;;19.42;8.88;;;;;;;;;;5015905;28;20040;-54
2021/11/18 08:16:19;;;;;;;15.50;8.25;;;;;;;;;;5019050;28;20092;-54
2021/11/18 08:18:45;;;;;;;16.60;8.55;;;;;;;;;;5020048;28;20041;-55
2021/11/18 08:21:11;;;;;;;19.45;8.70;;;;;;;;;;5021376;28;20039;-54
2021/11/18 08:23:37;;;;;;;17.20;8.52;;;;;;;;;;5016713;28;20021;-54
2021/11/18 08:26:06;;;;;;;17.60;9.60;;;;;;;;;;5017608;28;20407;-54
2021/11/18 08:28:32;;;;;;;19.67;8.40;;;;;;;;;;5016920;28;20034;-54
2021/11/18 08:30:58;;;;;;;20.63;9.73;;;;;;;;;;5018132;28;20400;-54
2021/11/18 08:33:23;;;;;;;19.83;9.40;;;;;;;;;;5019419;28;20065;-53
2021/11/18 08:35:49;;;;;;;20.45;9.02;;;;;;;;;;5022526;28;20065;-55
2021/11/18 08:38:17;;;;;;;19.83;9.25;;;;;;;;;;5020624;28;20021;-53
2021/11/18 08:40:49;;;;;;;19.52;9.80;;;;;;;;;;5023288;28;20413;-54
2021/11/18 08:43:14;;;;;;;22.05;10.73;;;;;;;;;;5018642;28;20033;-55
2021/11/18 08:45:40;;;;;;;23.45;11.10;;;;;;;;;;5023028;28;20045;-57
2021/11/18 08:48:08;;;;;;;15.95;8.10;;;;;;;;;;5015381;28;20056;-56
2021/11/18 08:50:34;;;;;;;15.85;8.10;;;;;;;;;;5024773;28;20040;-54
2021/11/18 08:53:00;;;;;;;20.23;9.35;;;;;;;;;;5022609;28;20028;-55
2021/11/18 08:55:33;;;;;;;21.80;10.60;;;;;;;;;;5024794;28;20029;-54
2021/11/18 08:57:58;;;;;;;20.20;9.63;;;;;;;;;;5021989;28;21174;-56
2021/11/18 09:00:49;;;;;;;21.33;9.65;;;;;;;;;;5020802;28;20084;-54
2021/11/18 09:03:17;;;;;;;21.63;10.40;;;;;;;;;;5020986;28;20033;-54
2021/11/18 09:05:42;;;;;;;21.70;10.15;;;;;;;;;;5025823;28;20108;-54
2021/11/18 09:08:08;;;;;;;20.33;10.48;;;;;;;;;;5021507;28;20108;-55
2021/11/18 09:10:35;;;;;;;20.25;10.85;;;;;;;;;;5023443;28;20246;-54
2021/11/18 09:13:02;;;;;;;21.13;10.75;;;;;;;;;;5019228;28;20037;-55
2021/11/18 09:15:28;;;;;;;22.85;10.05;;;;;;;;;;5025131;28;20041;-51
2021/11/18 09:17:56;;;;;;;22.63;10.55;;;;;;;;;;5023318;28;20041;-55
2021/11/18 09:20:24;;;;;;;21.48;10.32;;;;;;;;;;5024749;28;20025;-54
2021/11/18 09:22:50;;;;;;;20.17;10.30;;;;;;;;;;5016699;28;20033;-54
2021/11/18 09:25:17;;;;;;;18.92;9.20;;;;;;;;;;5026076;28;20033;-53
2021/11/18 09:27:49;;;;;;;14.80;7.45;;;;;;;;;;5026089;28;20055;-55
2021/11/18 09:30:23;;;;;;;14.13;7.25;;;;;;;;;;5021259;28;20175;-53
2021/11/18 09:32:49;;;;;;;16.15;7.72;;;;;;;;;;5021281;28;20049;-52
2021/11/18 09:35:19;;;;;;;17.63;9.07;;;;;;;;;;5021199;28;20527;-54
2021/11/18 09:37:45;;;;;;;16.40;8.45;;;;;;;;;;5026604;28;20030;-53
2021/11/18 09:40:17;;;;;;;25.35;10.75;;;;;;;;;;5020264;28;20037;-54
2021/11/18 09:43:26;;;;;;;22.88;9.98;;;;;;;;;;5020292;28;20033;-54
2021/11/18 09:46:10;;;;;;;21.40;9.65;;;;;;;;;;4997729;28;20124;-55
2021/11/18 09:48:56;;;;;;;18.98;9.32;;;;;;;;;;5019084;28;20079;-54
2021/11/18 09:51:35;;;;;;;20.98;10.20;;;;;;;;;;5019760;28;20026;-55
2021/11/18 09:54:30;;;;;;;17.63;9.38;;;;;;;;;;5022710;28;20025;-56
2021/11/18 09:57:16;;;;;;;19.10;9.75;;;;;;;;;;5022799;28;20032;-56
2021/11/18 09:59:42;;;;;;;18.50;9.38;;;;;;;;;;5018879;28;20052;-54
2021/11/18 10:02:19;;;;;;;23.48;10.13;;;;;;;;;;5019226;28;20033;-54
2021/11/18 10:05:07;;;;;;;20.55;10.23;;;;;;;;;;5023774;28;20350;-55
2021/11/18 10:07:48;;;;;;;20.73;10.20;;;;;;;;;;5021576;28;20031;-52
2021/11/18 10:10:35;;;;;;;15.27;8.90;;;;;;;;;;5020406;28;20032;-54
2021/11/18 10:13:22;;;;;;;20.08;10.45;;;;;;;;;;5015813;28;20032;-55
2021/11/18 10:15:59;;;;;;;19.27;10.02;;;;;;;;;;5020633;28;20113;-53
2021/11/18 10:18:32;;;;;;;18.63;10.50;;;;;;;;;;5019584;28;20033;-55
2021/11/18 10:21:03;;;;;;;18.63;10.23;;;;;;;;;;5025390;28;20041;-55
2021/11/18 10:23:28;;;;;;;20.17;10.18;;;;;;;;;;5025697;28;20025;-55
2021/11/18 10:26:08;;;;;;;12.43;8.07;;;;;;;;;;5027886;28;20040;-54
2021/11/18 10:28:42;;;;;;;10.38;6.32;;;;;;;;;;5017298;28;20112;-55
2021/11/18 10:31:19;;;;;;;13.38;7.10;;;;;;;;;;5034901;28;20029;-56
2021/11/18 10:33:53;;;;;;;12.07;7.15;;;;;;;;;;5019206;28;20029;-54
2021/11/18 10:36:48;;;;;;;12.02;7.72;;;;;;;;;;5021361;28;20029;-53
2021/11/18 10:39:40;;;;;;;11.15;6.72;;;;;;;;;;5020912;28;20566;-54
2021/11/18 10:42:28;;;;;;;10.27;6.63;;;;;;;;;;5015921;28;20144;-57
2021/11/18 10:45:03;;;;;;;11.25;6.60;;;;;;;;;;5011103;28;20057;-55
2021/11/18 10:47:55;;;;;;;10.40;6.15;;;;;;;;;;5024801;28;20321;-54
2021/11/18 10:50:23;;;;;;;11.15;6.78;;;;;;;;;;5021088;28;20021;-52
2021/11/18 10:53:02;;;;;;;10.77;6.07;;;;;;;;;;5022445;28;20041;-55
2021/11/18 10:55:36;;;;;;;10.75;6.28;;;;;;;;;;5023873;28;20542;-54
2021/11/18 10:58:04;;;;;;;9.00;5.93;;;;;;;;;;5016298;28;20033;-56
2021/11/18 11:00:40;;;;;;;9.05;6.43;;;;;;;;;;5014283;28;20033;-54
2021/11/18 11:03:27;;;;;;;10.05;5.75;;;;;;;;;;5021017;28;20521;-55
2021/11/18 11:06:16;;;;;;;10.23;5.78;;;;;;;;;;5017206;28;20553;-54
2021/11/18 11:08:51;;;;;;;8.25;5.25;;;;;;;;;;5018681;28;20115;-56
2021/11/18 11:11:39;;;;;;;8.98;5.55;;;;;;;;;;5013977;28;20030;-55
2021/11/18 11:14:18;;;;;;;8.65;5.75;;;;;;;;;;5018416;28;20059;-56
2021/11/18 11:17:05;;;;;;;8.63;5.55;;;;;;;;;;5018717;28;20033;-55
2021/11/18 11:19:50;;;;;;;8.57;5.20;;;;;;;;;;5014662;28;20030;-56
2021/11/18 11:22:30;;;;;;;9.77;6.25;;;;;;;;;;5016785;28;20108;-55
2021/11/18 11:25:07;;;;;;;10.38;5.72;;;;;;;;;;5022599;28;20060;-54
2021/11/18 11:27:54;;;;;;;7.95;5.30;;;;;;;;;;5017545;28;20090;-54
2021/11/18 11:30:32;;;;;;;20.35;10.07;;;;;;;;;;5015498;28;20080;-55
2021/11/18 11:33:10;;;;;;;22.55;9.95;;;;;;;;;;5015583;28;20026;-54
2021/11/18 11:35:42;;;;;;;13.77;8.05;;;;;;;;;;5019079;28;20025;-53
2021/11/18 11:38:25;;;;;;;15.82;8.63;;;;;;;;;;5018775;28;20086;-54
2021/11/18 11:41:03;;;;;;;14.13;7.57;;;;;;;;;;5012287;28;20034;-54
2021/11/18 11:43:40;;;;;;;12.90;7.43;;;;;;;;;;5017618;28;20036;-56
2021/11/18 11:46:47;;;;;;;15.25;8.05;;;;;;;;;;5017449;28;20166;-55
2021/11/18 11:49:48;;;;;;;11.82;6.75;;;;;;;;;;5014342;28;20804;-54
2021/11/18 11:52:24;;;;;;;11.63;7.15;;;;;;;;;;5016040;28;20516;-54
2021/11/18 11:54:55;;;;;;;12.75;7.40;;;;;;;;;;5015088;28;20080;-54
2021/11/18 11:57:24;;;;;;;14.13;7.88;;;;;;;;;;5018240;28;20033;-55
2021/11/18 12:00:31;;;;;;;27.58;13.90;;;;;;;;;;5015529;28;20050;-54
2021/11/18 12:03:17;;;;;;;48.35;20.60;;;;;;;;;;5017784;28;20041;-55
2021/11/18 12:06:17;;;;;;;23.00;11.40;;;;;;;;;;5019189;28;20038;-56
2021/11/18 12:08:51;;;;;;;21.40;10.07;;;;;;;;;;5016158;28;20199;-55
2021/11/18 12:11:44;;;;;;;18.90;8.90;;;;;;;;;;5022949;28;20071;-55
2021/11/18 12:14:21;;;;;;;34.28;12.70;;;;;;;;;;5024446;28;20025;-55
2021/11/18 12:17:23;;;;;;;22.55;10.40;;;;;;;;;;5025003;28;20088;-56
2021/11/18 12:20:08;;;;;;;13.88;7.90;;;;;;;;;;5022699;28;20021;-55
2021/11/18 12:22:37;;;;;;;11.70;6.25;;;;;;;;;;5021512;28;20070;-55
2021/11/18 12:25:20;;;;;;;10.80;6.55;;;;;;;;;;5024385;28;20395;-56
2021/11/18 12:27:54;;;;;;;16.95;8.05;;;;;;;;;;5016358;28;20034;-54
2021/11/18 12:30:45;;;;;;;11.98;7.75;;;;;;;;;;5019508;28;20024;-55
2021/11/18 12:33:11;;;;;;;11.10;6.78;;;;;;;;;;5020157;28;20518;-55
2021/11/18 12:36:01;;;;;;;12.60;7.25;;;;;;;;;;5024374;28;20025;-56
2021/11/18 12:38:29;;;;;;;22.73;10.27;;;;;;;;;;5020396;28;20060;-56
2021/11/18 12:41:07;;;;;;;39.45;15.35;;;;;;;;;;5023683;28;20034;-50
2021/11/18 12:44:10;;;;;;;28.30;12.75;;;;;;;;;;5028340;28;20032;-56
2021/11/18 12:46:54;;;;;;;22.00;10.52;;;;;;;;;;5023837;28;20044;-55
2021/11/18 12:49:44;;;;;;;16.05;7.90;;;;;;;;;;5015203;28;20026;-56
2021/11/18 12:52:25;;;;;;;16.85;9.27;;;;;;;;;;5020770;28;20049;-57
2021/11/18 12:55:15;;;;;;;9.98;6.60;;;;;;;;;;5026818;28;20040;-56
2021/11/18 12:57:45;;;;;;;15.73;7.82;;;;;;;;;;5015516;28;20032;-55
2021/11/18 13:00:14;;;;;;;22.50;10.43;;;;;;;;;;5023539;28;20033;-56
2021/11/18 13:02:41;;;;;;;18.67;8.27;;;;;;;;;;5020895;28;20479;-54
2021/11/18 13:05:10;;;;;;;27.38;11.57;;;;;;;;;;5028131;28;20022;-56
2021/11/18 13:07:38;;;;;;;22.60;11.00;;;;;;;;;;5019183;28;20088;-56
2021/11/18 13:10:16;;;;;;;15.80;7.75;;;;;;;;;;5022566;28;20040;-55
2021/11/18 13:12:49;;;;;;;12.00;7.35;;;;;;;;;;5025211;28;20141;-55
2021/11/18 13:15:17;;;;;;;11.60;7.07;;;;;;;;;;5018580;28;20401;-53
2021/11/18 13:17:55;;;;;;;13.43;7.70;;;;;;;;;;5022352;28;20048;-55
2021/11/18 13:20:37;;;;;;;11.40;6.95;;;;;;;;;;5016055;28;20295;-55
2021/11/18 13:23:26;;;;;;;13.85;7.22;;;;;;;;;;5024559;28;20034;-55
2021/11/18 13:25:54;;;;;;;14.63;8.18;;;;;;;;;;5019787;28;20047;-54
2021/11/18 13:28:47;;;;;;;15.95;8.70;;;;;;;;;;5016502;28;20044;-54
2021/11/18 13:31:23;;;;;;;13.60;6.90;;;;;;;;;;5015605;28;20057;-55
2021/11/18 13:33:49;;;;;;;14.20;7.43;;;;;;;;;;5015426;28;20044;-55
2021/11/18 13:36:20;;;;;;;15.35;8.23;;;;;;;;;;5013652;28;20391;-55
2021/11/18 13:38:56;;;;;;;13.77;8.05;;;;;;;;;;5023881;28;20034;-55
2021/11/18 13:41:52;;;;;;;12.80;7.45;;;;;;;;;;5023356;28;20037;-55
2021/11/18 13:44:37;;;;;;;11.48;7.05;;;;;;;;;;5015695;28;20037;-55
2021/11/18 13:47:18;;;;;;;14.50;7.40;;;;;;;;;;5018438;28;20488;-53
2021/11/18 13:49:48;;;;;;;11.88;7.10;;;;;;;;;;5022173;28;20084;-54
2021/11/18 13:52:22;;;;;;;15.75;8.00;;;;;;;;;;5016934;28;20040;-54
2021/11/18 13:54:52;;;;;;;13.50;7.57;;;;;;;;;;5024766;28;20389;-54
2021/11/18 13:57:36;;;;;;;14.32;7.60;;;;;;;;;;5029090;28;20029;-55
2021/11/18 14:00:08;;;;;;;17.45;8.45;;;;;;;;;;5022152;28;20531;-55
2021/11/18 14:03:01;;;;;;;11.68;7.00;;;;;;;;;;5018483;28;20034;-54
2021/11/18 14:05:31;;;;;;;10.25;5.80;;;;;;;;;;5017295;28;20033;-55
2021/11/18 14:08:27;;;;;;;11.13;6.50;;;;;;;;;;5023409;28;20029;-55
2021/11/18 14:11:00;;;;;;;25.63;6.47;;;;;;;;;;5024448;28;20018;-54
2021/11/18 14:13:38;;;;;;;19.55;5.95;;;;;;;;;;5018375;28;20041;-55
2021/11/18 14:16:06;;;;;;;12.48;7.43;;;;;;;;;;5024285;28;20044;-56
2021/11/18 14:18:34;;;;;;;15.18;8.52;;;;;;;;;;5023157;28;20067;-55
2021/11/18 14:21:05;;;;;;;13.82;8.00;;;;;;;;;;5021743;28;20021;-55
2021/11/18 14:23:48;;;;;;;10.95;6.50;;;;;;;;;;5015090;28;20052;-55
2021/11/18 14:26:22;;;;;;;10.10;6.22;;;;;;;;;;5025675;28;20068;-53
2021/11/18 14:29:18;;;;;;;8.32;5.13;;;;;;;;;;5023641;28;20018;-55
2021/11/18 14:32:10;;;;;;;11.90;5.97;;;;;;;;;;5001293;28;20033;-56
2021/11/18 14:35:04;;;;;;;14.27;6.65;;;;;;;;;;5017848;28;20354;-53
2021/11/18 14:37:41;;;;;;;12.52;6.80;;;;;;;;;;5014881;28;20064;-55
2021/11/18 14:40:25;;;;;;;16.33;9.30;;;;;;;;;;5016164;28;20026;-57
2021/11/18 14:42:55;;;;;;;13.43;7.93;;;;;;;;;;5026360;28;20132;-55
2021/11/18 14:45:29;;;;;;;12.60;7.82;;;;;;;;;;5015699;28;20041;-56
2021/11/18 14:48:13;;;;;;;12.55;7.60;;;;;;;;;;5018082;28;20087;-55
2021/11/18 14:50:53;;;;;;;13.93;8.18;;;;;;;;;;5019146;28;20032;-56
2021/11/18 14:53:28;;;;;;;10.82;6.82;;;;;;;;;;5012189;28;20108;-55